createdAt,value
2022-12-01T00:00:55.107Z,103818.97
2022-12-01T00:03:42.048Z,103814.56
2022-12-01T00:06:37.542Z,103814.44
2022-12-01T00:09:23.205Z,103818.91
2022-12-01T00:12:09.962Z,103818.88
2022-12-01T00:14:56.795Z,103824.13
2022-12-01T00:17:43.633Z,103813.50
2022-12-01T00:20:31.110Z,103813.53
2022-12-01T00:23:17.897Z,103814.38
2022-12-01T00:26:04.630Z,103824.00
2022-12-01T00:28:51.951Z,103819.59
2022-12-01T00:31:39.152Z,103822.19
2022-12-01T00:34:26.337Z,103824.81
2022-12-01T00:37:13.117Z,103824.78
2022-12-01T00:39:59.893Z,103816.81
2022-12-01T00:42:47.550Z,103775.81
2022-12-01T00:45:34.414Z,103817.53
2022-12-01T00:48:21.216Z,103823.75
2022-12-01T00:51:10.964Z,103828.06
2022-12-01T00:53:57.711Z,103828.94
2022-12-01T00:56:44.526Z,103821.91
2022-12-01T00:59:31.476Z,103829.81
2022-12-01T01:02:18.282Z,103827.97
2022-12-01T01:05:05.070Z,103829.75
2022-12-01T01:07:51.953Z,103809.19
2022-12-01T01:10:38.828Z,103830.53
2022-12-01T01:13:26.307Z,103821.75
2022-12-01T01:16:25.138Z,103832.25
2022-12-01T01:19:12.509Z,103844.56
2022-12-01T01:21:59.613Z,103835.75
2022-12-01T01:24:46.353Z,103836.63
2022-12-01T01:27:33.089Z,103834.84
2022-12-01T01:30:19.840Z,103796.63
2022-12-01T01:33:06.617Z,103836.50
2022-12-01T01:35:53.408Z,103843.53
2022-12-01T01:38:40.150Z,103802.66
2022-12-01T01:41:27.745Z,103836.50
2022-12-01T01:44:17.726Z,103845.28
2022-12-01T01:47:05.040Z,103837.34
2022-12-01T01:49:51.789Z,103836.44
2022-12-01T01:52:38.803Z,103846.94
2022-12-01T01:55:26.257Z,103853.94
2022-12-01T01:58:13.149Z,103845.03
2022-12-01T02:01:03.706Z,103845.03
2022-12-01T02:03:51.519Z,103786.31
2022-12-01T02:06:38.388Z,103852.16
2022-12-01T02:09:25.142Z,103849.47
2022-12-01T02:12:17.714Z,103843.31
2022-12-01T02:15:53.768Z,103841.50
2022-12-01T02:19:01.209Z,103846.78
2022-12-01T02:21:52.681Z,103846.72
2022-12-01T02:25:06.841Z,103846.69
2022-12-01T02:28:32.689Z,103845.78
2022-12-01T02:31:28.692Z,103854.56
2022-12-01T02:34:29.505Z,103855.34
2022-12-01T02:37:28.235Z,103851.91
2022-12-01T02:40:26.032Z,103834.97
2022-12-01T02:43:19.235Z,103859.75
2022-12-01T02:46:27.406Z,103857.09
2022-12-01T02:49:18.630Z,103819.66
2022-12-01T02:52:05.765Z,103856.97
2022-12-01T02:54:54.182Z,103866.56
2022-12-01T02:57:41.162Z,103862.19
2022-12-01T03:00:28.464Z,103859.53
2022-12-01T03:03:36.642Z,103868.34
2022-12-01T03:06:37.705Z,103860.44
2022-12-01T03:09:30.349Z,103864.88
2022-12-01T03:12:27.983Z,103819.56
2022-12-01T03:15:29.650Z,103863.13
2022-12-01T03:18:34.985Z,103858.75
2022-12-01T03:21:29.886Z,103857.88
2022-12-01T03:24:21.981Z,103807.16
2022-12-01T03:27:14.585Z,103854.41
2022-12-01T03:30:05.577Z,103853.53
2022-12-01T03:33:17.124Z,103860.56
2022-12-01T03:36:12.069Z,103850.03
2022-12-01T03:39:01.825Z,103850.91
2022-12-01T03:41:56.595Z,103855.28
2022-12-01T03:44:48.913Z,103833.97
2022-12-01T03:47:42.100Z,103861.47
2022-12-01T03:50:32.019Z,103764.47
2022-12-01T03:53:27.844Z,103863.19
2022-12-01T03:56:22.666Z,103849.00
2022-12-01T03:59:13.160Z,103862.34
2022-12-01T04:02:00.088Z,103851.81
2022-12-01T04:04:46.953Z,103852.69
2022-12-01T04:07:33.801Z,103849.19
2022-12-01T04:10:20.593Z,103840.22
2022-12-01T04:13:03.605Z,103854.47
2022-12-01T04:15:50.415Z,103854.41
2022-12-01T04:18:37.869Z,103845.59
2022-12-01T04:21:24.849Z,103854.38
2022-12-01T04:24:20.620Z,103847.34
2022-12-01T04:27:07.401Z,103858.81
2022-12-01T04:29:54.193Z,103844.56
2022-12-01T04:32:41.030Z,103855.22
2022-12-01T04:35:29.949Z,103842.75
2022-12-01T04:38:16.689Z,103853.44
2022-12-01T04:41:03.502Z,103855.22
2022-12-01T04:43:50.244Z,103859.66
2022-12-01T04:46:37.049Z,103840.13
2022-12-01T04:49:25.231Z,103801.91
2022-12-01T04:52:12.071Z,103788.66
2022-12-01T04:54:58.900Z,103848.28
2022-12-01T04:57:45.696Z,103858.84
2022-12-01T05:00:33.202Z,103860.63
2022-12-01T05:03:20.330Z,103861.53
2022-12-01T05:06:07.107Z,103859.78
2022-12-01T05:08:53.868Z,103859.78
2022-12-01T05:11:40.707Z,103865.09
2022-12-01T05:14:27.473Z,103865.97
2022-12-01T05:17:14.197Z,103834.78
2022-12-01T05:19:59.608Z,103866.88
2022-12-01T05:23:04.863Z,103865.97
2022-12-01T05:25:52.790Z,103845.44
2022-12-01T05:28:40.217Z,103792.13
2022-12-01T05:31:27.053Z,103868.59
2022-12-01T05:34:13.852Z,103878.31
2022-12-01T05:37:00.705Z,103873.94
2022-12-01T05:39:47.866Z,103868.63
2022-12-01T05:42:34.922Z,103875.72
2022-12-01T05:45:21.661Z,103879.22
2022-12-01T05:48:08.384Z,103867.75
2022-12-01T05:50:59.106Z,103812.50
2022-12-01T05:53:47.009Z,103883.66
2022-12-01T05:56:33.830Z,103835.56
2022-12-01T05:59:20.665Z,103883.66
2022-12-01T06:02:07.462Z,103884.50
2022-12-01T06:04:54.236Z,103867.47
2022-12-01T06:07:41.228Z,103889.78
2022-12-01T06:10:29.063Z,103885.41
2022-12-01T06:13:15.867Z,103885.34
2022-12-01T06:16:02.690Z,103887.97
2022-12-01T06:18:55.011Z,103888.06
2022-12-01T06:21:41.930Z,103892.41
2022-12-01T06:24:30.084Z,103813.91
2022-12-01T06:27:16.814Z,103904.72
2022-12-01T06:30:03.600Z,103901.19
2022-12-01T06:32:50.952Z,103873.56
2022-12-01T06:35:37.842Z,103903.78
2022-12-01T06:38:25.071Z,103904.56
2022-12-01T06:41:11.838Z,103899.31
2022-12-01T06:43:58.666Z,103829.81
2022-12-01T06:46:45.409Z,103913.34
2022-12-01T06:49:33.110Z,103908.09
2022-12-01T06:52:19.859Z,103917.81
2022-12-01T06:55:06.611Z,103895.63
2022-12-01T06:57:53.564Z,103912.53
2022-12-01T07:00:40.702Z,103889.31
2022-12-01T07:03:28.508Z,103918.69
2022-12-01T07:06:17.111Z,103922.25
2022-12-01T07:09:04.232Z,103913.47
2022-12-01T07:11:50.973Z,103891.06
2022-12-01T07:14:44.703Z,103881.25
2022-12-01T07:17:31.487Z,103931.94
2022-12-01T07:20:18.414Z,103924.81
2022-12-01T07:23:05.177Z,103937.19
2022-12-01T07:25:51.910Z,103943.38
2022-12-01T07:28:38.731Z,103935.47
2022-12-01T07:31:28.900Z,103932.84
2022-12-01T07:34:15.851Z,103938.97
2022-12-01T07:37:02.625Z,103949.50
2022-12-01T07:39:49.558Z,103953.00
2022-12-01T08:15:00.630Z,103961.56
2022-12-01T08:17:27.434Z,103968.63
2022-12-01T08:20:14.228Z,103965.97
2022-12-01T08:23:00.991Z,103961.63
2022-12-01T08:25:49.305Z,103966.03
2022-12-01T08:28:36.381Z,103968.69
2022-12-01T08:31:31.006Z,103971.31
2022-12-01T08:34:18.363Z,103974.00
2022-12-01T08:36:45.243Z,103939.34
2022-12-01T08:39:32.093Z,103968.69
2022-12-01T08:42:18.854Z,103969.63
2022-12-01T08:45:05.674Z,103975.81
2022-12-01T08:47:52.488Z,103975.84
2022-12-01T08:50:39.259Z,103966.06
2022-12-01T08:53:26.008Z,103976.72
2022-12-01T08:56:12.741Z,103975.84
2022-12-01T08:58:59.601Z,103963.38
2022-12-01T09:01:47.222Z,103973.25
2022-12-01T09:04:34.087Z,103966.06
2022-12-01T09:07:26.154Z,103973.25
2022-12-01T09:10:13.322Z,103976.81
2022-12-01T09:13:00.109Z,103971.38
2022-12-01T09:15:46.892Z,103978.56
2022-12-01T09:18:33.741Z,103973.28
2022-12-01T09:21:01.264Z,103977.66
2022-12-01T09:23:48.105Z,103974.06
2022-12-01T09:26:18.662Z,103979.47
2022-12-01T09:28:47.370Z,103980.28
2022-12-01T09:31:15.424Z,103979.28
2022-12-01T09:33:42.791Z,103989.00
2022-12-01T09:36:10.738Z,103998.69
2022-12-01T09:38:38.647Z,103993.38
2022-12-01T09:41:29.074Z,103981.72
2022-12-01T09:44:34.075Z,103998.63
2022-12-01T09:47:28.516Z,103985.31
2022-12-01T09:50:24.673Z,103997.63
2022-12-01T09:53:16.559Z,103997.63
2022-12-01T09:56:10.042Z,103987.00
2022-12-01T09:58:59.702Z,103981.47
2022-12-01T10:02:01.829Z,103902.06
2022-12-01T10:04:57.151Z,103993.09
2022-12-01T10:08:16.272Z,104001.81
2022-12-01T10:11:06.953Z,104000.03
2022-12-01T10:13:53.990Z,103998.22
2022-12-01T10:16:50.746Z,103939.34
2022-12-01T10:19:55.003Z,103993.81
2022-12-01T10:23:06.153Z,103993.78
2022-12-01T10:26:17.255Z,103991.13
2022-12-01T10:29:17.711Z,103988.47
2022-12-01T10:32:15.743Z,103994.56
2022-12-01T10:35:03.550Z,103942.84
2022-12-01T10:37:51.410Z,103990.16
2022-12-01T10:40:38.381Z,103997.16
2022-12-01T10:43:25.127Z,103998.00
2022-12-01T10:46:13.529Z,103991.81
2022-12-01T10:49:09.675Z,103995.31
2022-12-01T10:52:17.474Z,103994.41
2022-12-01T10:54:44.306Z,103990.00
2022-12-01T10:57:17.586Z,103990.91
2022-12-01T10:59:52.011Z,103986.28
2022-12-01T11:02:45.812Z,104001.34
2022-12-01T11:05:27.921Z,103994.22
2022-12-01T11:07:55.254Z,104006.56
2022-12-01T11:10:49.105Z,104008.34
2022-12-01T11:13:42.879Z,104003.06
2022-12-01T11:17:08.750Z,103999.53
2022-12-01T11:19:55.558Z,103997.72
2022-12-01T11:22:45.227Z,104007.41
2022-12-01T11:25:40.549Z,103963.00
2022-12-01T11:28:39.258Z,103988.75
2022-12-01T11:31:29.436Z,104004.72
2022-12-01T11:34:16.707Z,103994.16
2022-12-01T11:37:07.170Z,103998.50
2022-12-01T11:40:01.065Z,104000.28
2022-12-01T11:42:51.224Z,103996.69
2022-12-01T11:45:41.154Z,104001.06
2022-12-01T11:48:44.834Z,103993.13
2022-12-01T11:51:47.345Z,104002.78
2022-12-01T11:54:41.563Z,104000.09
2022-12-01T11:57:34.647Z,104001.84
2022-12-01T12:00:38.441Z,103917.19
2022-12-01T12:03:40.283Z,103999.16
2022-12-01T12:06:40.304Z,104003.47
2022-12-01T12:09:27.532Z,104008.75
2022-12-01T12:12:32.574Z,103996.44
2022-12-01T12:15:34.243Z,103999.94
2022-12-01T12:18:27.598Z,103997.25
2022-12-01T12:21:45.343Z,103991.97
2022-12-01T12:24:59.354Z,103994.59
2022-12-01T12:28:02.096Z,103995.38
2022-12-01T12:30:51.115Z,104000.63
2022-12-01T12:33:51.499Z,104005.84
2022-12-01T12:37:23.009Z,103996.19
2022-12-01T12:40:16.225Z,103993.50
2022-12-01T12:43:13.309Z,103996.09
2022-12-01T12:46:21.901Z,103993.44
2022-12-01T12:49:53.393Z,103996.03
2022-12-01T12:52:45.802Z,103941.72
2022-12-01T12:55:52.804Z,103993.31
2022-12-01T12:58:45.295Z,103980.94
2022-12-01T13:01:43.234Z,103986.16
2022-12-01T13:04:41.195Z,103985.25
2022-12-01T13:07:55.876Z,103994.81
2022-12-01T13:10:59.526Z,104001.75
2022-12-01T13:14:16.257Z,103996.41
2022-12-01T13:17:06.549Z,104002.50
2022-12-01T13:19:59.168Z,103980.19
2022-12-01T13:22:52.792Z,104008.56
2022-12-01T13:25:48.119Z,104008.53
2022-12-01T13:28:43.285Z,104022.50
2022-12-01T13:31:34.104Z,103966.31
2022-12-01T13:34:25.797Z,103942.09
2022-12-01T13:37:15.063Z,104019.69
2022-12-01T13:40:02.020Z,104021.41
2022-12-01T13:42:48.863Z,104020.50
2022-12-01T13:45:39.298Z,104010.63
2022-12-01T13:48:25.321Z,104022.13
2022-12-01T13:51:02.540Z,104011.34
2022-12-01T13:53:37.691Z,104026.41
2022-12-01T13:56:06.094Z,104029.03
2022-12-01T13:58:33.078Z,104036.88
2022-12-01T14:01:22.176Z,104025.44
2022-12-01T14:04:31.420Z,104034.16
2022-12-01T14:07:54.156Z,104033.22
2022-12-01T14:11:06.867Z,104028.78
2022-12-01T14:14:09.178Z,104026.97
2022-12-01T14:17:17.752Z,104028.69
2022-12-01T14:20:12.667Z,104017.03
2022-12-01T14:23:02.373Z,104032.13
2022-12-01T14:25:50.848Z,104028.56
2022-12-01T14:28:57.564Z,104007.16
2022-12-01T14:31:54.546Z,104016.91
2022-12-01T14:34:44.964Z,104029.31
2022-12-01T14:37:34.556Z,104016.91
2022-12-01T14:40:37.772Z,104035.56
2022-12-01T14:43:23.581Z,104034.72
2022-12-01T14:46:26.887Z,104032.81
2022-12-01T14:49:15.349Z,104039.03
2022-12-01T14:52:06.034Z,104057.38
2022-12-01T14:54:44.780Z,103878.41
2022-12-01T14:57:33.930Z,104036.31
2022-12-01T15:00:26.006Z,104037.13
2022-12-01T15:03:34.049Z,104050.25
2022-12-01T15:06:23.651Z,104040.56
2022-12-01T15:09:35.628Z,104046.69
2022-12-01T15:12:25.794Z,104046.69
2022-12-01T15:15:12.665Z,104028.03
2022-12-01T15:17:59.404Z,104044.00
2022-12-01T15:20:57.110Z,104047.47
2022-12-01T15:23:43.892Z,104047.47
2022-12-01T15:26:39.658Z,104047.44
2022-12-01T15:29:41.907Z,104048.25
2022-12-01T15:32:34.277Z,104050.88
2022-12-01T15:35:21.421Z,104044.72
2022-12-01T15:38:09.195Z,104043.81
2022-12-01T15:44:03.520Z,104013.50
2022-12-01T15:46:52.857Z,104039.34
2022-12-01T15:49:50.965Z,104032.28
2022-12-01T15:52:37.895Z,104031.41
2022-12-01T15:55:26.221Z,104030.47
2022-12-01T15:58:13.378Z,104023.28
2022-12-01T16:01:00.259Z,104029.56
2022-12-01T16:03:47.591Z,104034.78
2022-12-01T16:06:34.451Z,104024.00
2022-12-01T16:09:23.806Z,104031.28
2022-12-01T16:12:39.535Z,104026.03
2022-12-01T16:15:34.395Z,104030.31
2022-12-01T16:18:40.495Z,104017.78
2022-12-01T16:21:27.321Z,104026.75
2022-12-01T16:24:26.729Z,104032.84
2022-12-01T16:27:20.157Z,104036.47
2022-12-01T16:30:26.158Z,104041.72
2022-12-01T16:33:21.712Z,104044.38
2022-12-01T16:36:09.916Z,104046.13
2022-12-01T16:38:56.662Z,104039.09
2022-12-01T16:41:51.484Z,104043.47
2022-12-01T16:44:38.315Z,104041.72
2022-12-01T16:47:33.066Z,104035.56
2022-12-01T16:50:19.875Z,104039.81
2022-12-01T16:53:07.234Z,104043.47
2022-12-01T16:55:59.088Z,104046.94
2022-12-01T16:58:45.875Z,104042.41
2022-12-01T17:01:32.780Z,104046.00
2022-12-01T17:04:19.595Z,104047.75
2022-12-01T17:07:06.456Z,104034.22
2022-12-01T17:09:53.292Z,103928.13
2022-12-01T17:12:40.055Z,104044.22
2022-12-01T17:15:27.270Z,104054.69
2022-12-01T17:18:14.023Z,104020.91
2022-12-01T17:21:01.185Z,104048.41
2022-12-01T17:23:48.478Z,104052.72
2022-12-01T17:26:37.794Z,104034.78
2022-12-01T17:29:24.890Z,104054.41
2022-12-01T17:32:12.111Z,104049.94
2022-12-01T17:34:59.517Z,104060.44
2022-12-01T17:37:46.315Z,104062.97
2022-12-01T17:40:36.505Z,103944.19
2022-12-01T17:43:23.408Z,103995.88
2022-12-01T17:46:11.707Z,104059.13
2022-12-01T17:49:01.010Z,104067.88
2022-12-01T17:51:47.842Z,104062.56
2022-12-01T17:54:34.735Z,104065.13
2022-12-01T17:57:21.537Z,104041.09
2022-12-01T18:00:08.399Z,104050.03
2022-12-01T18:02:58.277Z,104059.72
2022-12-01T18:05:45.150Z,104066.66
2022-12-01T18:08:31.897Z,104061.41
2022-12-01T18:11:24.522Z,104063.16
2022-12-01T18:14:12.707Z,104058.72
2022-12-01T18:16:59.489Z,104055.22
2022-12-01T18:19:46.390Z,104056.94
2022-12-01T18:22:33.130Z,104056.03
2022-12-01T18:25:19.912Z,104060.44
2022-12-01T18:28:06.690Z,104060.44
2022-12-01T18:30:54.282Z,103987.97
2022-12-01T18:33:41.045Z,104063.06
2022-12-01T18:36:36.896Z,104065.69
2022-12-01T18:39:25.968Z,104070.09
2022-12-01T18:42:12.873Z,104067.47
2022-12-01T18:44:59.651Z,104074.47
2022-12-01T18:47:48.116Z,104057.50
2022-12-01T18:50:34.989Z,104079.78
2022-12-01T18:53:21.722Z,104075.44
2022-12-01T18:55:48.561Z,104080.69
2022-12-01T18:58:16.068Z,104080.75
2022-12-01T19:00:43.057Z,104081.66
2022-12-01T19:03:30.177Z,104087.78
2022-12-01T19:06:17.044Z,104022.63
2022-12-01T19:09:06.110Z,104089.59
2022-12-01T19:11:53.179Z,104091.31
2022-12-01T19:14:39.922Z,104047.59
2022-12-01T19:17:26.769Z,104091.25
2022-12-01T19:20:13.552Z,104101.91
2022-12-01T19:23:00.337Z,104100.13
2022-12-01T19:25:47.110Z,104119.41
2022-12-01T19:28:33.909Z,104056.22
2022-12-01T19:31:25.495Z,104108.06
2022-12-01T19:34:13.795Z,104108.06
2022-12-01T19:37:00.599Z,104112.47
2022-12-01T19:39:47.385Z,104096.44
2022-12-01T19:42:34.151Z,104118.63
2022-12-01T19:45:20.927Z,104072.34
2022-12-01T19:48:08.402Z,104024.94
2022-12-01T19:50:56.371Z,104122.06
2022-12-01T19:53:43.118Z,104117.72
2022-12-01T19:56:29.904Z,104097.19
2022-12-01T19:59:18.764Z,104127.38
2022-12-01T20:02:05.755Z,104081.94
2022-12-01T20:04:52.761Z,104122.06
2022-12-01T20:07:39.724Z,104122.97
2022-12-01T20:10:26.773Z,104125.56
2022-12-01T20:13:13.534Z,104143.16
2022-12-01T20:16:00.392Z,104127.16
2022-12-01T20:18:48.121Z,104119.06
2022-12-01T20:21:39.434Z,104129.78
2022-12-01T20:24:27.761Z,104083.34
2022-12-01T20:27:14.914Z,104151.03
2022-12-01T20:30:01.684Z,104144.91
2022-12-01T20:32:49.639Z,104125.22
2022-12-01T20:35:36.570Z,104136.16
2022-12-01T20:38:27.443Z,104139.50
2022-12-01T20:41:14.585Z,104143.16
2022-12-01T20:44:06.925Z,104111.63
2022-12-01T20:46:54.807Z,104152.84
2022-12-01T20:49:41.810Z,104140.31
2022-12-01T20:52:28.577Z,104155.50
2022-12-01T20:55:15.324Z,104159.00
2022-12-01T20:58:02.081Z,104168.69
2022-12-01T21:00:50.292Z,104166.94
2022-12-01T21:03:56.986Z,104156.44
2022-12-01T21:06:43.833Z,104146.56
2022-12-01T21:09:30.735Z,104154.72
2022-12-01T21:12:17.727Z,104139.66
2022-12-01T21:15:04.421Z,104155.69
2022-12-01T21:17:56.758Z,104150.41
2022-12-01T21:20:56.889Z,104151.25
2022-12-01T21:23:47.000Z,104154.72
2022-12-01T21:26:36.806Z,104157.50
2022-12-01T21:29:39.581Z,104156.59
2022-12-01T21:32:46.113Z,104138.84
2022-12-01T21:35:42.057Z,104152.25
2022-12-01T21:38:32.828Z,104154.94
2022-12-01T21:41:19.595Z,104156.66
2022-12-01T21:44:06.437Z,104151.41
2022-12-01T21:46:53.172Z,104141.63
2022-12-01T21:49:42.169Z,104142.66
2022-12-01T21:52:44.310Z,104157.66
2022-12-01T21:55:34.173Z,104150.69
2022-12-01T21:58:20.934Z,104160.34
2022-12-01T22:01:08.030Z,104077.44
2022-12-01T22:04:03.226Z,104160.41
2022-12-01T22:06:39.894Z,104153.41
2022-12-01T22:09:27.962Z,104148.22
2022-12-01T22:11:57.507Z,104155.25
2022-12-01T22:14:33.778Z,104119.56
2022-12-01T22:17:06.423Z,104155.31
2022-12-01T22:19:42.488Z,104167.63
2022-12-01T22:22:29.292Z,104151.00
2022-12-01T22:25:41.470Z,104157.16
2022-12-01T22:28:34.462Z,104125.97
2022-12-01T22:31:22.232Z,104159.84
2022-12-01T22:34:19.406Z,104159.00
2022-12-01T22:37:06.149Z,104159.03
2022-12-01T22:39:55.949Z,104155.56
2022-12-01T22:42:53.957Z,104167.88
2022-12-01T22:45:46.102Z,104166.97
2022-12-01T22:48:48.252Z,104160.88
2022-12-01T22:51:43.949Z,104162.69
2022-12-01T22:54:36.565Z,104163.56
2022-12-01T22:57:23.274Z,104169.72
2022-12-01T23:00:10.463Z,104167.03
2022-12-01T23:02:57.334Z,104171.50
2022-12-01T23:05:47.452Z,104165.34
2022-12-01T23:08:42.270Z,104165.34
2022-12-01T23:11:31.297Z,104166.22
2022-12-01T23:14:18.037Z,104169.81
2022-12-01T23:17:04.919Z,104159.09
2022-12-01T23:19:53.014Z,104154.75
2022-12-01T23:22:40.341Z,104168.97
2022-12-01T23:25:39.201Z,104142.38
2022-12-01T23:28:28.272Z,104157.63
2022-12-01T23:31:17.374Z,104145.16
2022-12-01T23:34:04.137Z,104158.50
2022-12-01T23:36:50.888Z,104148.78
2022-12-01T23:39:42.347Z,104149.78
2022-12-01T23:42:31.503Z,104140.84
2022-12-01T23:45:18.234Z,104151.53
2022-12-01T23:48:10.833Z,104147.97
2022-12-01T23:50:57.925Z,104149.75
2022-12-01T23:53:50.518Z,104153.19
2022-12-01T23:56:41.409Z,104158.50
2022-12-01T23:59:33.422Z,104127.25
